createdAt,value
2023-11-12T00:08:51.348Z,14.80
2023-11-12T00:18:55.091Z,16.30
2023-11-12T00:28:58.487Z,16.20
2023-11-12T00:39:01.905Z,14.80
2023-11-12T00:49:06.878Z,14.60
2023-11-12T00:59:10.331Z,16.20
2023-11-12T01:09:13.855Z,14.40
2023-11-12T01:19:17.619Z,16.50
2023-11-12T01:29:21.476Z,14.60
2023-11-12T01:39:25.128Z,16.40
2023-11-12T01:49:29.067Z,12.50
2023-11-12T01:59:35.686Z,13.80
2023-11-12T02:09:39.271Z,15.40
2023-11-12T02:19:42.610Z,17.50
2023-11-12T02:29:50.051Z,17.40
2023-11-12T02:39:53.771Z,16.20
2023-11-12T02:50:03.384Z,20.80
2023-11-12T03:00:10.200Z,15.20
2023-11-12T03:10:13.636Z,16.10
2023-11-12T03:20:17.341Z,16.20
2023-11-12T03:30:20.765Z,16.60
2023-11-12T03:40:25.299Z,14.30
2023-11-12T03:50:28.677Z,13.10
2023-11-12T04:00:33.384Z,16.50
2023-11-12T04:10:36.971Z,17.40
2023-11-12T04:20:40.308Z,18.20
2023-11-12T04:30:44.006Z,17.60
2023-11-12T04:40:50.253Z,16.50
2023-11-12T04:50:54.332Z,12.20
2023-11-12T05:00:57.788Z,10.20
2023-11-12T05:11:01.333Z,8.00
2023-11-12T05:21:06.488Z,8.30
2023-11-12T05:31:11.939Z,7.40
2023-11-12T05:41:15.967Z,7.00
2023-11-12T05:51:21.068Z,6.50
2023-11-12T06:01:24.719Z,6.90
2023-11-12T06:11:27.979Z,6.00
2023-11-12T06:21:31.357Z,6.30
2023-11-12T06:31:35.439Z,5.50
2023-11-12T06:41:38.821Z,4.80
2023-11-12T06:51:42.277Z,4.60
2023-11-12T07:01:47.154Z,4.60
2023-11-12T07:11:50.556Z,4.60
2023-11-12T07:21:53.795Z,5.30
2023-11-12T07:31:57.340Z,7.20
2023-11-12T07:42:00.684Z,4.70
2023-11-12T07:52:04.554Z,4.60
2023-11-12T08:02:07.931Z,5.60
2023-11-12T08:12:11.223Z,4.40
2023-11-12T08:22:14.978Z,5.00
2023-11-12T08:32:19.063Z,5.40
2023-11-12T08:42:22.415Z,3.40
2023-11-12T08:52:26.542Z,11.30
2023-11-12T09:02:29.944Z,4.10
2023-11-12T09:12:33.866Z,5.00
2023-11-12T09:22:37.082Z,3.90
2023-11-12T09:32:40.791Z,6.40
2023-11-12T09:42:53.177Z,4.10
2023-11-12T09:52:56.840Z,4.70
2023-11-12T10:03:01.510Z,6.50
2023-11-12T10:13:05.964Z,8.10
2023-11-12T10:23:32.932Z,4.20
2023-11-12T10:33:38.517Z,5.90
2023-11-12T10:43:57.958Z,4.70
2023-11-12T10:54:04.168Z,3.50
2023-11-12T11:04:10.423Z,4.50
2023-11-12T11:14:31.012Z,6.70
2023-11-12T11:24:45.172Z,10.10
2023-11-12T11:34:50.842Z,4.80
2023-11-12T11:45:00.964Z,4.00
2023-11-12T11:55:13.528Z,5.10
2023-11-12T12:05:32.590Z,6.80
2023-11-12T12:15:37.317Z,4.70
2023-11-12T12:25:53.347Z,3.70
2023-11-12T12:36:00.540Z,4.20
2023-11-12T12:46:06.345Z,4.70
2023-11-12T12:56:10.866Z,6.40
2023-11-12T13:06:16.149Z,3.90
2023-11-12T13:16:19.637Z,3.70
2023-11-12T13:26:23.752Z,3.60
2023-11-12T13:36:28.339Z,4.10
2023-11-12T13:46:33.263Z,4.50
2023-11-12T13:56:38.698Z,4.10
2023-11-12T14:06:42.211Z,4.70
2023-11-12T14:16:46.127Z,4.30
2023-11-12T14:26:49.853Z,5.90
2023-11-12T14:36:53.214Z,3.30
2023-11-12T14:46:56.716Z,2.90
2023-11-12T14:56:59.928Z,9.90
2023-11-12T15:07:03.830Z,4.00
2023-11-12T15:17:07.696Z,3.90
2023-11-12T15:27:11.139Z,5.80
2023-11-12T15:37:15.193Z,5.50
2023-11-12T15:47:21.030Z,9.90
2023-11-12T15:57:24.375Z,12.90
2023-11-12T16:07:27.783Z,18.00
2023-11-12T16:17:33.076Z,9.90
2023-11-12T16:27:36.822Z,16.90
2023-11-12T16:37:48.625Z,25.10
2023-11-12T16:47:52.843Z,66.50
2023-11-12T16:57:56.401Z,48.60
2023-11-12T17:08:00.535Z,52.30
2023-11-12T17:18:03.954Z,30.70
2023-11-12T17:28:07.485Z,35.20
2023-11-12T17:38:11.285Z,38.30
2023-11-12T17:48:16.806Z,30.50
2023-11-12T17:58:21.348Z,54.60
2023-11-12T18:08:25.643Z,36.60
2023-11-12T18:18:32.700Z,31.90
2023-11-12T18:28:38.929Z,30.30
2023-11-12T18:38:42.436Z,41.60
2023-11-12T18:48:45.688Z,46.50
2023-11-12T18:58:54.847Z,41.60
2023-11-12T19:09:00.116Z,39.60
2023-11-12T19:19:04.272Z,42.20
2023-11-12T19:29:07.660Z,41.40
2023-11-12T19:39:14.749Z,34.30
2023-11-12T19:49:18.225Z,47.40
2023-11-12T19:59:21.946Z,42.20
2023-11-12T20:09:25.822Z,45.80
2023-11-12T20:19:29.348Z,46.20
2023-11-12T20:29:34.670Z,39.20
2023-11-12T20:39:40.175Z,36.80
2023-11-12T20:49:44.408Z,41.80
2023-11-12T20:59:49.186Z,53.60
2023-11-12T21:09:54.173Z,53.20
2023-11-12T21:19:59.343Z,57.40
2023-11-12T21:30:03.219Z,43.70
2023-11-12T21:40:07.413Z,44.30
2023-11-12T21:50:17.216Z,41.70
2023-11-12T22:00:22.193Z,44.60
2023-11-12T22:10:25.577Z,34.70
2023-11-12T22:20:31.318Z,42.40
2023-11-12T22:30:34.723Z,35.30
2023-11-12T22:40:38.985Z,32.60
2023-11-12T22:50:42.255Z,31.10
2023-11-12T23:00:51.106Z,32.10
2023-11-12T23:10:59.209Z,27.80
2023-11-12T23:21:09.536Z,21.80
2023-11-12T23:31:13.669Z,26.90
2023-11-12T23:41:17.270Z,30.50
2023-11-12T23:51:21.229Z,32.40
